createdAt,value
2019-02-16T09:19:30.251Z,14.67
2019-02-16T09:22:00.512Z,15.83
2019-02-16T09:24:37.381Z,16.10
2019-02-16T09:27:21.674Z,15.70
2019-02-16T09:29:52.353Z,17.97
2019-02-16T09:32:25.972Z,17.83
2019-02-16T09:35:05.818Z,14.17
2019-02-16T09:37:33.564Z,16.50
2019-02-16T09:40:16.408Z,16.50
2019-02-16T09:42:44.085Z,13.87
2019-02-16T09:45:18.031Z,15.73
2019-02-16T09:47:45.778Z,17.87
2019-02-16T09:50:19.300Z,12.83
2019-02-16T09:52:47.043Z,13.83
2019-02-16T09:55:27.131Z,13.80
2019-02-16T09:57:57.714Z,17.53
2019-02-16T10:00:25.492Z,13.50
2019-02-16T10:02:53.268Z,14.80
2019-02-16T10:05:24.043Z,15.90
2019-02-16T10:07:51.811Z,13.03
2019-02-16T10:10:31.841Z,17.47
2019-02-16T10:13:00.662Z,16.30
2019-02-16T10:15:34.834Z,15.77
2019-02-16T10:18:17.777Z,14.57
2019-02-16T10:20:54.562Z,16.67
2019-02-16T10:23:38.825Z,14.93
2019-02-16T10:26:09.367Z,15.93
2019-02-16T10:28:37.105Z,13.58
2019-02-16T10:31:04.987Z,14.45
2019-02-16T10:33:38.589Z,13.40
2019-02-16T10:36:23.178Z,13.22
2019-02-16T10:39:07.463Z,15.63
2019-02-16T10:41:41.026Z,14.23
2019-02-16T10:44:11.725Z,12.35
2019-02-16T10:46:57.867Z,11.53
2019-02-16T10:49:37.967Z,11.15
2019-02-16T10:52:05.822Z,11.53
2019-02-16T10:54:33.567Z,11.28
2019-02-16T10:57:13.590Z,14.30
2019-02-16T10:59:41.334Z,12.20
2019-02-16T11:02:09.295Z,15.50
2019-02-16T11:04:38.564Z,11.28
2019-02-16T11:07:06.736Z,16.48
2019-02-16T11:09:40.394Z,12.78
2019-02-16T11:12:17.428Z,13.95
2019-02-16T11:14:45.216Z,12.60
2019-02-16T11:17:12.981Z,12.75
2019-02-16T11:19:55.798Z,13.00
2019-02-16T11:22:39.872Z,11.60
2019-02-16T11:25:10.334Z,11.63
2019-02-16T11:27:52.946Z,12.03
2019-02-16T11:30:26.426Z,11.78
2019-02-16T11:32:54.825Z,13.48
2019-02-16T11:35:22.647Z,11.28
2019-02-16T11:38:02.824Z,12.80
2019-02-16T11:40:36.577Z,10.90
2019-02-16T11:43:04.429Z,12.73
2019-02-16T11:45:34.950Z,13.03
2019-02-16T11:48:19.223Z,11.93
2019-02-16T11:50:49.712Z,12.55
2019-02-16T11:53:23.724Z,14.00
2019-02-16T11:55:54.470Z,13.40
2019-02-16T11:58:39.070Z,14.75
2019-02-16T12:01:21.899Z,13.58
2019-02-16T12:04:04.817Z,14.00
2019-02-16T12:06:35.681Z,14.95
2019-02-16T12:09:06.425Z,15.18
2019-02-16T12:11:49.500Z,15.80
2019-02-16T12:14:20.095Z,15.25
2019-02-16T12:16:47.839Z,15.55
2019-02-16T12:19:18.567Z,15.43
2019-02-16T12:21:55.425Z,15.98
2019-02-16T12:24:29.149Z,15.00
2019-02-16T12:27:05.735Z,16.52
2019-02-16T12:29:36.194Z,17.70
2019-02-16T12:32:13.234Z,15.72
2019-02-16T12:34:40.993Z,15.78
2019-02-16T12:37:11.509Z,16.02
2019-02-16T12:39:48.527Z,18.05
2019-02-16T12:42:22.219Z,17.82
2019-02-16T12:44:49.969Z,17.17
2019-02-16T12:47:20.798Z,17.57
2019-02-16T12:49:48.676Z,17.12
2019-02-16T12:52:19.218Z,17.35
2019-02-16T12:54:55.879Z,16.97
2019-02-16T12:57:29.790Z,23.22
2019-02-16T12:59:57.643Z,17.90
2019-02-16T13:02:25.448Z,15.83
2019-02-16T13:04:56.153Z,17.62
2019-02-16T13:07:23.941Z,14.07
2019-02-16T13:09:51.702Z,15.95
2019-02-16T13:12:35.333Z,16.75
2019-02-16T13:15:09.406Z,15.55
2019-02-16T13:17:52.244Z,15.25
2019-02-16T13:20:26.047Z,18.52
2019-02-16T13:23:11.984Z,15.65
2019-02-16T13:25:39.753Z,16.80
2019-02-16T13:28:24.437Z,16.85
2019-02-16T13:31:08.052Z,14.90
2019-02-16T13:33:41.724Z,17.57
2019-02-16T13:36:26.225Z,15.83
2019-02-16T13:38:56.723Z,16.93
2019-02-16T13:41:27.208Z,16.48
2019-02-16T13:43:57.823Z,16.10
2019-02-16T13:46:28.302Z,16.07
2019-02-16T13:48:56.285Z,14.05
2019-02-16T13:51:32.915Z,17.17
2019-02-16T13:54:00.678Z,15.23
2019-02-16T13:56:37.680Z,16.32
2019-02-16T13:59:11.397Z,16.02
2019-02-16T14:01:39.140Z,17.05
2019-02-16T14:04:26.773Z,17.92
2019-02-16T14:06:57.402Z,19.07
2019-02-16T14:09:34.060Z,21.12
2019-02-16T14:12:13.790Z,19.50
2019-02-16T14:14:47.584Z,20.40
2019-02-16T14:17:24.354Z,19.52
2019-02-16T14:19:50.507Z,17.95
2019-02-16T14:22:16.339Z,20.12
2019-02-16T14:24:44.095Z,16.20
2019-02-16T14:27:10.177Z,19.10
2019-02-16T14:29:36.109Z,19.65
2019-02-16T14:32:03.244Z,16.82
2019-02-16T14:34:29.493Z,16.67
2019-02-16T14:36:55.425Z,17.10
2019-02-16T14:39:23.195Z,20.10
2019-02-16T14:41:49.053Z,17.57
2019-02-16T14:44:14.901Z,17.02
2019-02-16T14:46:40.774Z,18.67
2019-02-16T14:49:06.606Z,17.48
2019-02-16T14:51:32.482Z,19.95
2019-02-16T14:53:58.331Z,19.17
2019-02-16T14:56:24.201Z,17.87
2019-02-16T14:58:50.019Z,20.20
2019-02-16T15:01:15.884Z,16.97
2019-02-16T15:03:41.707Z,16.77
2019-02-16T15:06:07.699Z,20.92
2019-02-16T15:08:33.557Z,18.67
2019-02-16T15:10:59.410Z,19.60
2019-02-16T15:13:25.288Z,18.45
2019-02-16T15:15:51.127Z,20.00
2019-02-16T15:18:16.968Z,16.80
2019-02-16T15:20:42.893Z,17.75
2019-02-16T15:23:08.738Z,18.92
2019-02-16T15:25:34.573Z,17.87
2019-02-16T15:28:00.444Z,17.87
2019-02-16T15:30:26.392Z,22.02
2019-02-16T15:32:52.289Z,21.23
2019-02-16T15:35:18.132Z,22.17
2019-02-16T15:37:44.007Z,23.52
2019-02-16T15:40:09.936Z,44.13
2019-02-16T15:42:35.868Z,26.40
2019-02-16T15:45:02.421Z,24.95
2019-02-16T15:47:28.291Z,22.48
2019-02-16T15:49:54.401Z,20.00
2019-02-16T15:52:20.264Z,25.57
2019-02-16T15:54:46.120Z,23.45
2019-02-16T15:57:11.959Z,27.02
2019-02-16T15:59:37.855Z,21.17
2019-02-16T16:02:03.785Z,23.02
2019-02-16T16:04:29.622Z,27.40
2019-02-16T16:06:55.469Z,25.68
2019-02-16T16:09:29.023Z,22.82
2019-02-16T16:11:59.795Z,25.80
2019-02-16T16:14:30.512Z,22.82
2019-02-16T16:16:58.213Z,25.02
2019-02-16T16:19:35.832Z,23.70
2019-02-16T16:22:18.560Z,23.95
2019-02-16T16:24:46.443Z,22.90
2019-02-16T16:27:20.163Z,21.65
2019-02-16T16:30:03.241Z,25.77
2019-02-16T16:32:39.547Z,22.67
2019-02-16T16:35:07.433Z,25.77
2019-02-16T16:37:37.872Z,30.05
2019-02-16T16:40:06.738Z,25.97
2019-02-16T16:42:34.478Z,26.37
2019-02-16T16:45:04.945Z,28.90
2019-02-16T16:47:32.714Z,36.38
2019-02-16T16:50:00.561Z,32.55
2019-02-16T16:52:28.400Z,31.05
2019-02-16T16:55:02.170Z,33.88
2019-02-16T16:57:38.718Z,41.90
2019-02-16T17:00:25.106Z,32.88
2019-02-16T17:03:04.851Z,32.58
2019-02-16T17:05:32.723Z,30.63
2019-02-16T17:08:06.504Z,38.40
2019-02-16T17:10:37.229Z,37.25
2019-02-16T17:13:13.743Z,37.23
2019-02-16T17:15:56.605Z,34.60
2019-02-16T17:18:26.918Z,39.80
2019-02-16T17:21:00.724Z,38.90
2019-02-16T17:23:31.380Z,39.58
2019-02-16T17:25:59.254Z,46.97
2019-02-16T17:28:42.228Z,42.93
2019-02-16T17:31:16.031Z,39.20
2019-02-16T17:33:43.882Z,43.73
2019-02-16T17:36:14.379Z,42.33
2019-02-16T17:38:47.945Z,47.23
2019-02-16T17:41:27.564Z,45.65
2019-02-16T17:44:01.317Z,41.90
2019-02-16T17:46:45.873Z,42.53
2019-02-16T17:49:22.943Z,40.87
2019-02-16T17:52:07.625Z,45.97
2019-02-16T17:54:51.921Z,45.53
2019-02-16T17:57:19.699Z,47.93
2019-02-16T17:59:47.548Z,52.33
2019-02-16T18:02:15.310Z,48.60
2019-02-16T18:04:49.077Z,50.97
2019-02-16T18:07:19.819Z,47.00
2019-02-16T18:09:56.840Z,50.40
2019-02-16T18:12:37.151Z,45.67
2019-02-16T18:15:24.146Z,49.17
2019-02-16T18:18:06.926Z,47.53
2019-02-16T18:20:49.805Z,49.27
2019-02-16T18:23:20.542Z,49.83
2019-02-16T18:25:54.330Z,54.13
2019-02-16T18:28:22.280Z,64.13
2019-02-16T18:30:50.051Z,59.00
2019-02-16T18:33:33.260Z,64.97
2019-02-16T18:36:04.128Z,68.37
2019-02-16T18:38:43.983Z,56.97
2019-02-16T18:41:20.731Z,57.83
2019-02-16T18:44:06.800Z,58.03
2019-02-16T18:46:46.326Z,54.70
2019-02-16T18:49:26.262Z,51.35
2019-02-16T18:51:54.004Z,49.57
2019-02-16T18:54:21.772Z,47.00
2019-02-16T18:57:11.460Z,40.50
2019-02-16T18:59:55.808Z,41.37
2019-02-16T19:02:26.315Z,44.37
2019-02-16T19:04:54.152Z,48.73
2019-02-16T19:07:21.864Z,38.00
2019-02-16T19:10:01.859Z,42.93
2019-02-16T19:12:47.650Z,40.17
2019-02-16T19:15:24.336Z,50.70
2019-02-16T19:17:52.079Z,54.97
2019-02-16T19:20:22.820Z,46.00
2019-02-16T19:22:53.344Z,43.23
2019-02-16T19:25:24.003Z,45.37
2019-02-16T19:28:04.041Z,39.57
2019-02-16T19:30:46.916Z,38.90
2019-02-16T19:33:29.646Z,39.53
2019-02-16T19:36:03.302Z,40.47
2019-02-16T19:38:31.042Z,39.27
2019-02-16T19:40:58.790Z,40.43
2019-02-16T19:43:29.556Z,36.93
2019-02-16T19:45:57.392Z,37.10
2019-02-16T19:48:31.149Z,35.03
2019-02-16T19:51:07.486Z,37.07
2019-02-16T19:53:41.006Z,36.93
2019-02-16T19:56:17.835Z,40.23
2019-02-16T19:58:57.816Z,38.83
2019-02-16T20:01:31.357Z,39.00
2019-02-16T20:04:01.857Z,42.27
2019-02-16T20:06:29.600Z,68.60
2019-02-16T20:09:03.165Z,77.47
2019-02-16T20:11:33.913Z,69.20
2019-02-16T20:14:01.742Z,65.37
2019-02-16T20:16:29.480Z,56.57
2019-02-16T20:18:59.976Z,61.37
2019-02-16T20:21:44.461Z,48.57
2019-02-16T20:24:15.229Z,47.07
2019-02-16T20:26:45.730Z,50.20
2019-02-16T20:29:22.549Z,45.97
2019-02-16T20:31:59.359Z,42.53
2019-02-16T20:34:30.100Z,38.87
2019-02-16T20:37:06.879Z,44.03
2019-02-16T20:39:37.543Z,41.60
2019-02-16T20:42:14.259Z,48.90
2019-02-16T20:44:44.778Z,55.23
2019-02-16T20:47:15.279Z,51.60
2019-02-16T20:49:46.257Z,51.60
2019-02-16T20:52:14.005Z,48.53
2019-02-16T20:54:44.662Z,43.10
2019-02-16T20:57:21.335Z,38.93
2019-02-16T20:59:51.820Z,38.33
2019-02-16T21:02:19.585Z,45.20
2019-02-16T21:04:53.494Z,48.63
2019-02-16T21:07:37.997Z,41.23
2019-02-16T21:10:17.036Z,41.90
2019-02-16T21:12:48.682Z,48.90
2019-02-16T21:15:37.812Z,46.87
2019-02-16T21:18:05.750Z,41.30
2019-02-16T21:20:33.469Z,41.43
2019-02-16T21:23:10.344Z,37.43
2019-02-16T21:25:40.899Z,45.70
2019-02-16T21:28:08.802Z,38.87
2019-02-16T21:30:42.770Z,36.13
2019-02-16T21:33:22.636Z,43.13
2019-02-16T21:35:56.521Z,45.83
2019-02-16T21:38:24.359Z,43.50
2019-02-16T21:40:52.143Z,49.97
2019-02-16T21:43:19.918Z,43.50
2019-02-16T21:45:52.205Z,47.60
2019-02-16T21:48:29.084Z,44.73
2019-02-16T21:50:56.922Z,40.77
2019-02-16T21:53:39.970Z,45.60
2019-02-16T21:56:10.461Z,45.53
2019-02-16T21:58:50.220Z,49.90
2019-02-16T22:01:34.827Z,51.40
2019-02-16T22:04:02.589Z,46.67
2019-02-16T22:06:30.356Z,46.47
2019-02-16T22:09:04.130Z,46.77
2019-02-16T22:11:40.678Z,50.63
2019-02-16T22:14:06.566Z,46.07
2019-02-16T22:16:32.381Z,47.20
2019-02-16T22:18:58.281Z,46.93
2019-02-16T22:21:24.100Z,42.23
2019-02-16T22:23:50.039Z,42.83
2019-02-16T22:26:16.094Z,40.77
2019-02-16T22:28:42.045Z,40.47
2019-02-16T22:31:07.888Z,43.40
2019-02-16T22:33:33.711Z,38.00
2019-02-16T22:35:59.677Z,39.47
2019-02-16T22:38:25.543Z,43.73
2019-02-16T22:40:51.411Z,39.43
2019-02-16T22:43:17.271Z,37.87
2019-02-16T22:45:43.133Z,48.73
2019-02-16T22:48:08.946Z,53.43
2019-02-16T22:50:34.795Z,54.10
2019-02-16T22:53:00.739Z,48.93
2019-02-16T22:55:26.573Z,46.30
2019-02-16T22:57:52.408Z,46.50
2019-02-16T23:00:20.784Z,40.33
2019-02-16T23:02:46.718Z,36.87
2019-02-16T23:05:13.174Z,37.13
2019-02-16T23:07:39.007Z,38.53
2019-02-16T23:10:09.462Z,40.30
2019-02-16T23:12:35.393Z,36.17
2019-02-16T23:15:01.291Z,39.93
2019-02-16T23:17:27.270Z,38.13
2019-02-16T23:19:53.229Z,36.33
2019-02-16T23:22:19.192Z,37.83
2019-02-16T23:24:45.061Z,41.47
2019-02-16T23:27:10.923Z,47.67
2019-02-16T23:29:36.881Z,44.33
2019-02-16T23:32:03.246Z,48.67
2019-02-16T23:34:29.092Z,173.97
2019-02-16T23:36:54.950Z,223.83
2019-02-16T23:39:20.799Z,311.93
2019-02-16T23:41:46.636Z,270.93
2019-02-16T23:44:12.487Z,187.70
2019-02-16T23:46:38.339Z,137.33
2019-02-16T23:49:04.254Z,118.13
2019-02-16T23:51:30.102Z,81.13
2019-02-16T23:53:56.039Z,61.37
2019-02-16T23:56:21.880Z,90.50
2019-02-16T23:58:49.535Z,94.20
